sensor_id;sensor_type;location;lat;lon;timestamp;pressure;altitude;pressure_sealevel;temperature;humidity
5988;BME280;3021;51.000;6.980;2023-04-21T00:01:10;67164.25;;;7.75;100.00
5988;BME280;3021;51.000;6.980;2023-04-21T00:03:35;67157.19;;;7.66;100.00
5988;BME280;3021;51.000;6.980;2023-04-21T00:06:04;67153.28;;;7.65;100.00
5988;BME280;3021;51.000;6.980;2023-04-21T00:08:34;67143.06;;;7.58;100.00
5988;BME280;3021;51.000;6.980;2023-04-21T00:11:05;67147.50;;;7.60;100.00
5988;BME280;3021;51.000;6.980;2023-04-21T00:13:39;67156.91;;;7.71;100.00
5988;BME280;3021;51.000;6.980;2023-04-21T00:16:05;67159.63;;;7.71;100.00
5988;BME280;3021;51.000;6.980;2023-04-21T00:18:31;67151.00;;;7.63;100.00
5988;BME280;3021;51.000;6.980;2023-04-21T00:20:56;67156.34;;;7.70;100.00
5988;BME280;3021;51.000;6.980;2023-04-21T00:23:22;67164.09;;;7.72;100.00
5988;BME280;3021;51.000;6.980;2023-04-21T00:25:47;67156.91;;;7.71;100.00
5988;BME280;3021;51.000;6.980;2023-04-21T00:28:12;67156.16;;;7.68;100.00
5988;BME280;3021;51.000;6.980;2023-04-21T00:30:38;67157.91;;;7.69;100.00
5988;BME280;3021;51.000;6.980;2023-04-21T00:33:03;67153.28;;;7.65;100.00
5988;BME280;3021;51.000;6.980;2023-04-21T00:35:28;67158.06;;;7.72;100.00
5988;BME280;3021;51.000;6.980;2023-04-21T00:37:54;67165.97;;;7.76;100.00
5988;BME280;3021;51.000;6.980;2023-04-21T00:40:20;67160.34;;;7.74;100.00
5988;BME280;3021;51.000;6.980;2023-04-21T00:42:45;67158.63;;;7.72;100.00
5988;BME280;3021;51.000;6.980;2023-04-21T00:45:11;67159.78;;;7.73;100.00
5988;BME280;3021;51.000;6.980;2023-04-21T00:47:36;67169.28;;;7.77;100.00
5988;BME280;3021;51.000;6.980;2023-04-21T00:50:02;67158.06;;;7.72;100.00
5988;BME280;3021;51.000;6.980;2023-04-21T00:52:28;67165.53;;;7.78;100.00
5988;BME280;3021;51.000;6.980;2023-04-21T00:54:55;67166.13;;;7.79;100.00
5988;BME280;3021;51.000;6.980;2023-04-21T00:57:21;67162.66;;;7.76;100.00
5988;BME280;3021;51.000;6.980;2023-04-21T00:59:47;67168.44;;;7.81;100.00
5988;BME280;3021;51.000;6.980;2023-04-21T01:02:15;67178.06;;;7.87;100.00
5988;BME280;3021;51.000;6.980;2023-04-21T01:04:41;67171.16;;;7.81;100.00
5988;BME280;3021;51.000;6.980;2023-04-21T01:07:07;67168.25;;;7.78;100.00
5988;BME280;3021;51.000;6.980;2023-04-21T01:09:34;67163.09;;;7.74;100.00
5988;BME280;3021;51.000;6.980;2023-04-21T01:12:03;67164.41;;;7.77;100.00
5988;BME280;3021;51.000;6.980;2023-04-21T01:14:29;67166.69;;;7.79;100.00
5988;BME280;3021;51.000;6.980;2023-04-21T01:16:55;67174.75;;;7.87;100.00
5988;BME280;3021;51.000;6.980;2023-04-21T01:19:22;67185.16;;;7.96;100.00
5988;BME280;3021;51.000;6.980;2023-04-21T01:21:47;67189.75;;;8.00;100.00
5988;BME280;3021;51.000;6.980;2023-04-21T01:24:13;67190.91;;;8.01;100.00
5988;BME280;3021;51.000;6.980;2023-04-21T01:26:38;67200.41;;;8.05;100.00
5988;BME280;3021;51.000;6.980;2023-04-21T01:29:04;67198.25;;;8.05;100.00
5988;BME280;3021;51.000;6.980;2023-04-21T01:31:29;67197.53;;;8.02;100.00
5988;BME280;3021;51.000;6.980;2023-04-21T01:33:55;67190.50;;;8.03;100.00
5988;BME280;3021;51.000;6.980;2023-04-21T01:36:20;67190.91;;;8.01;100.00
5988;BME280;3021;51.000;6.980;2023-04-21T01:38:46;67194.94;;;8.05;100.00
5988;BME280;3021;51.000;6.980;2023-04-21T01:41:11;67202.88;;;8.09;100.00
5988;BME280;3021;51.000;6.980;2023-04-21T01:43:36;67205.75;;;8.12;100.00
5988;BME280;3021;51.000;6.980;2023-04-21T01:46:03;67204.16;;;8.13;100.00
5988;BME280;3021;51.000;6.980;2023-04-21T01:48:29;67209.94;;;8.18;100.00
5988;BME280;3021;51.000;6.980;2023-04-21T01:50:54;67209.53;;;8.20;100.00
5988;BME280;3021;51.000;6.980;2023-04-21T01:53:19;67209.38;;;8.18;100.00
5988;BME280;3021;51.000;6.980;2023-04-21T01:55:45;67211.50;;;8.17;100.00
5988;BME280;3021;51.000;6.980;2023-04-21T01:58:10;67207.06;;;8.16;100.00
5988;BME280;3021;51.000;6.980;2023-04-21T02:00:35;67208.78;;;8.17;100.00
5988;BME280;3021;51.000;6.980;2023-04-21T02:03:01;67208.78;;;8.17;100.00
5988;BME280;3021;51.000;6.980;2023-04-21T02:05:26;67204.75;;;8.13;100.00
5988;BME280;3021;51.000;6.980;2023-04-21T02:07:52;67199.56;;;8.09;100.00
5988;BME280;3021;51.000;6.980;2023-04-21T02:10:17;67200.72;;;8.10;100.00
5988;BME280;3021;51.000;6.980;2023-04-21T02:12:42;67198.56;;;8.10;100.00
5988;BME280;3021;51.000;6.980;2023-04-21T02:15:08;67196.09;;;8.06;100.00
5988;BME280;3021;51.000;6.980;2023-04-21T02:17:34;67194.38;;;8.04;100.00
5988;BME280;3021;51.000;6.980;2023-04-21T02:20:00;67184.56;;;7.95;100.00
5988;BME280;3021;51.000;6.980;2023-04-21T02:22:25;67175.94;;;7.88;100.00
5988;BME280;3021;51.000;6.980;2023-04-21T02:24:51;67163.81;;;7.77;100.00
5988;BME280;3021;51.000;6.980;2023-04-21T02:27:16;67160.34;;;7.74;100.00
5988;BME280;3021;51.000;6.980;2023-04-21T02:29:42;67156.34;;;7.70;100.00
5988;BME280;3021;51.000;6.980;2023-04-21T02:32:08;67154.59;;;7.69;100.00
5988;BME280;3021;51.000;6.980;2023-04-21T02:34:33;67155.59;;;7.67;100.00
5988;BME280;3021;51.000;6.980;2023-04-21T02:36:58;67154.00;;;7.68;100.00
5988;BME280;3021;51.000;6.980;2023-04-21T02:39:25;67152.28;;;7.67;100.00
5988;BME280;3021;51.000;6.980;2023-04-21T02:41:50;67152.84;;;7.67;100.00
5988;BME280;3021;51.000;6.980;2023-04-21T02:44:15;67157.91;;;7.69;100.00
5988;BME280;3021;51.000;6.980;2023-04-21T02:46:41;67159.06;;;7.70;100.00
5988;BME280;3021;51.000;6.980;2023-04-21T02:49:07;67155.75;;;7.70;100.00
5988;BME280;3021;51.000;6.980;2023-04-21T02:51:33;67159.63;;;7.71;100.00
5988;BME280;3021;51.000;6.980;2023-04-21T02:53:58;67151.13;;;7.66;100.00
5988;BME280;3021;51.000;6.980;2023-04-21T02:56:24;67149.41;;;7.64;100.00
5988;BME280;3021;51.000;6.980;2023-04-21T02:58:49;67143.66;;;7.59;100.00
5988;BME280;3021;51.000;6.980;2023-04-21T03:01:14;67144.06;;;7.57;100.00
5988;BME280;3021;51.000;6.980;2023-04-21T03:03:40;67138.88;;;7.52;100.00
5988;BME280;3021;51.000;6.980;2023-04-21T03:06:06;67135.00;;;7.51;100.00
5988;BME280;3021;51.000;6.980;2023-04-21T03:08:31;67127.50;;;7.44;100.00
5988;BME280;3021;51.000;6.980;2023-04-21T03:10:57;67115.97;;;7.34;100.00
5988;BME280;3021;51.000;6.980;2023-04-21T03:13:22;67114.84;;;7.33;100.00
5988;BME280;3021;51.000;6.980;2023-04-21T03:15:49;67111.34;;;7.30;100.00
5988;BME280;3021;51.000;6.980;2023-04-21T03:18:15;67104.28;;;7.21;100.00
5988;BME280;3021;51.000;6.980;2023-04-21T03:20:40;67097.94;;;7.16;100.00
5988;BME280;3021;51.000;6.980;2023-04-21T03:23:06;67088.88;;;7.10;100.00
5988;BME280;3021;51.000;6.980;2023-04-21T03:25:31;67088.75;;;7.07;100.00
5988;BME280;3021;51.000;6.980;2023-04-21T03:27:57;67084.13;;;7.03;100.00
5988;BME280;3021;51.000;6.980;2023-04-21T03:30:22;67080.69;;;7.00;100.00
5988;BME280;3021;51.000;6.980;2023-04-21T03:32:49;67082.53;;;7.04;100.00
5988;BME280;3021;51.000;6.980;2023-04-21T03:35:15;67076.22;;;6.99;100.00
5988;BME280;3021;51.000;6.980;2023-04-21T03:37:40;67074.91;;;6.95;100.00
5988;BME280;3021;51.000;6.980;2023-04-21T03:40:06;67075.66;;;6.98;100.00
5988;BME280;3021;51.000;6.980;2023-04-21T03:42:33;67079.09;;;7.01;100.00
5988;BME280;3021;51.000;6.980;2023-04-21T03:45:02;67067.56;;;6.91;100.00
5988;BME280;3021;51.000;6.980;2023-04-21T03:47:28;67055.50;;;6.80;100.00
5988;BME280;3021;51.000;6.980;2023-04-21T03:49:53;67054.19;;;6.77;100.00
5988;BME280;3021;51.000;6.980;2023-04-21T03:52:18;67051.44;;;6.77;100.00
5988;BME280;3021;51.000;6.980;2023-04-21T03:54:44;67049.56;;;6.72;100.00
5988;BME280;3021;51.000;6.980;2023-04-21T03:57:09;67042.22;;;6.68;100.00
5988;BME280;3021;51.000;6.980;2023-04-21T03:59:35;67045.38;;;6.66;100.00
5988;BME280;3021;51.000;6.980;2023-04-21T04:02:00;67037.06;;;6.64;100.00
5988;BME280;3021;51.000;6.980;2023-04-21T04:04:28;67038.06;;;6.62;100.00
5988;BME280;3021;51.000;6.980;2023-04-21T04:06:53;67039.34;;;6.66;100.00
5988;BME280;3021;51.000;6.980;2023-04-21T04:09:18;67049.56;;;6.72;100.00
5988;BME280;3021;51.000;6.980;2023-04-21T04:11:44;67046.84;;;6.72;100.00
5988;BME280;3021;51.000;6.980;2023-04-21T04:14:09;67041.09;;;6.67;100.00
5988;BME280;3021;51.000;6.980;2023-04-21T04:16:34;67035.91;;;6.63;100.00
5988;BME280;3021;51.000;6.980;2023-04-21T04:19:00;67039.22;;;6.63;100.00
5988;BME280;3021;51.000;6.980;2023-04-21T04:21:25;67028.44;;;6.56;100.00
5988;BME280;3021;51.000;6.980;2023-04-21T04:23:56;67027.69;;;6.53;100.00
5988;BME280;3021;51.000;6.980;2023-04-21T04:26:23;67022.66;;;6.51;100.00
5988;BME280;3021;51.000;6.980;2023-04-21T04:28:49;67021.50;;;6.50;100.00
5988;BME280;3021;51.000;6.980;2023-04-21T04:31:15;67022.66;;;6.51;100.00
5988;BME280;3021;51.000;6.980;2023-04-21T04:33:41;67027.09;;;6.52;100.00
5988;BME280;3021;51.000;6.980;2023-04-21T04:36:07;67029.44;;;6.54;100.00
5988;BME280;3021;51.000;6.980;2023-04-21T04:38:32;67029.16;;;6.59;100.00
5988;BME280;3021;51.000;6.980;2023-04-21T04:40:59;67042.66;;;6.66;100.00
5988;BME280;3021;51.000;6.980;2023-04-21T04:43:26;67056.06;;;6.81;100.00
5988;BME280;3021;51.000;6.980;2023-04-21T04:45:51;67062.25;;;6.84;100.00
5988;BME280;3021;51.000;6.980;2023-04-21T04:48:17;67059.53;;;6.84;100.00
5988;BME280;3021;51.000;6.980;2023-04-21T04:50:43;67066.84;;;6.88;100.00
5988;BME280;3021;51.000;6.980;2023-04-21T04:53:08;67072.75;;;6.96;100.00
5988;BME280;3021;51.000;6.980;2023-04-21T04:55:34;67074.91;;;6.95;100.00
5988;BME280;3021;51.000;6.980;2023-04-21T04:57:59;67072.03;;;6.92;100.00
5988;BME280;3021;51.000;6.980;2023-04-21T05:00:26;67073.34;;;6.96;100.00
5988;BME280;3021;51.000;6.980;2023-04-21T05:02:53;67089.47;;;7.11;100.00
5988;BME280;3021;51.000;6.980;2023-04-21T05:05:18;67103.88;;;7.23;100.00
5988;BME280;3021;51.000;6.980;2023-04-21T05:07:44;67114.25;;;7.33;100.00
5988;BME280;3021;51.000;6.980;2023-04-21T05:10:10;67123.47;;;7.41;100.00
5988;BME280;3021;51.000;6.980;2023-04-21T05:12:35;67131.53;;;7.48;100.00
5988;BME280;3021;51.000;6.980;2023-04-21T05:15:00;67149.25;;;7.61;100.00
5988;BME280;3021;51.000;6.980;2023-04-21T05:17:26;67166.13;;;7.79;100.00
5988;BME280;3021;51.000;6.980;2023-04-21T05:19:52;67172.47;;;7.85;100.00
5988;BME280;3021;51.000;6.980;2023-04-21T05:22:18;67175.50;;;7.90;100.00
5988;BME280;3021;51.000;6.980;2023-04-21T05:24:43;67174.75;;;7.87;100.00
5988;BME280;3021;51.000;6.980;2023-04-21T05:27:08;67174.59;;;7.84;100.00
5988;BME280;3021;51.000;6.980;2023-04-21T05:29:34;67171.88;;;7.84;100.00
5988;BME280;3021;51.000;6.980;2023-04-21T05:31:59;67173.47;;;7.83;100.00
5988;BME280;3021;51.000;6.980;2023-04-21T05:34:25;67187.44;;;7.98;100.00
5988;BME280;3021;51.000;6.980;2023-04-21T05:36:50;67186.88;;;7.98;100.00
5988;BME280;3021;51.000;6.980;2023-04-21T05:39:16;67189.63;;;7.98;100.00
5988;BME280;3021;51.000;6.980;2023-04-21T05:41:42;67195.97;;;8.03;100.00
5988;BME280;3021;51.000;6.980;2023-04-21T05:44:07;67193.22;;;8.03;100.00
5988;BME280;3021;51.000;6.980;2023-04-21T05:46:32;67197.69;;;8.05;100.00
5988;BME280;3021;51.000;6.980;2023-04-21T05:48:59;67200.97;;;8.05;100.00
5988;BME280;3021;51.000;6.980;2023-04-21T05:51:26;67202.44;;;8.11;100.00
5988;BME280;3021;51.000;6.980;2023-04-21T05:53:52;67206.91;;;8.13;100.00
5988;BME280;3021;51.000;6.980;2023-04-21T05:56:17;67218.59;;;8.26;100.00
5988;BME280;3021;51.000;6.980;2023-04-21T05:58:43;67233.03;;;8.39;100.00
5988;BME280;3021;51.000;6.980;2023-04-21T06:01:08;67239.69;;;8.50;100.00
5988;BME280;3021;51.000;6.980;2023-04-21T06:03:34;67251.50;;;8.55;100.00
5988;BME280;3021;51.000;6.980;2023-04-21T06:06:01;67253.78;;;8.57;100.00
5988;BME280;3021;51.000;6.980;2023-04-21T06:08:26;67250.19;;;8.52;100.00
5988;BME280;3021;51.000;6.980;2023-04-21T06:10:52;67254.22;;;8.55;100.00
5988;BME280;3021;51.000;6.980;2023-04-21T06:13:17;67262.44;;;8.65;100.00
5988;BME280;3021;51.000;6.980;2023-04-21T06:15:43;67297.06;;;8.96;100.00
5988;BME280;3021;51.000;6.980;2023-04-21T06:18:08;67318.28;;;9.12;100.00
5988;BME280;3021;51.000;6.980;2023-04-21T06:20:34;67333.00;;;9.30;100.00
5988;BME280;3021;51.000;6.980;2023-04-21T06:22:59;67349.00;;;9.42;100.00
5988;BME280;3021;51.000;6.980;2023-04-21T06:25:25;67370.38;;;9.61;100.00
5988;BME280;3021;51.000;6.980;2023-04-21T06:27:50;67411.53;;;10.00;100.00
5988;BME280;3021;51.000;6.980;2023-04-21T06:30:15;67476.97;;;10.61;100.00
5988;BME280;3021;51.000;6.980;2023-04-21T06:32:41;67485.91;;;10.64;100.00
5988;BME280;3021;51.000;6.980;2023-04-21T06:35:07;67466.84;;;10.47;100.00
5988;BME280;3021;51.000;6.980;2023-04-21T06:37:33;67473.78;;;10.53;100.00
5988;BME280;3021;51.000;6.980;2023-04-21T06:39:58;67520.31;;;11.00;100.00
5988;BME280;3021;51.000;6.980;2023-04-21T06:42:24;67569.16;;;11.38;100.00
5988;BME280;3021;51.000;6.980;2023-04-21T06:44:49;67577.25;;;11.46;100.00
5988;BME280;3021;51.000;6.980;2023-04-21T06:47:14;67580.16;;;11.48;100.00
5988;BME280;3021;51.000;6.980;2023-04-21T06:49:41;67603.88;;;11.69;100.00
5988;BME280;3021;51.000;6.980;2023-04-21T06:52:06;67617.16;;;11.81;100.00
5988;BME280;3021;51.000;6.980;2023-04-21T06:54:31;67630.22;;;11.98;100.00
5988;BME280;3021;51.000;6.980;2023-04-21T06:56:57;67638.03;;;12.00;100.00
5988;BME280;3021;51.000;6.980;2023-04-21T06:59:22;67639.75;;;12.01;100.00
5988;BME280;3021;51.000;6.980;2023-04-21T07:01:47;67704.59;;;12.59;100.00
5988;BME280;3021;51.000;6.980;2023-04-21T07:04:16;67748.56;;;12.98;100.00
5988;BME280;3021;51.000;6.980;2023-04-21T07:06:42;67744.50;;;12.94;100.00
5988;BME280;3021;51.000;6.980;2023-04-21T07:09:08;67812.44;;;13.57;100.00
5988;BME280;3021;51.000;6.980;2023-04-21T07:11:33;67847.78;;;13.89;100.00
5988;BME280;3021;51.000;6.980;2023-04-21T07:13:58;67861.13;;;14.00;100.00
5988;BME280;3021;51.000;6.980;2023-04-21T07:16:29;67891.25;;;14.27;100.00
5988;BME280;3021;51.000;6.980;2023-04-21T07:18:55;67893.13;;;14.31;100.00
5988;BME280;3021;51.000;6.980;2023-04-21T07:21:20;67880.38;;;14.20;100.00
5988;BME280;3021;51.000;6.980;2023-04-21T07:23:46;67842.72;;;13.87;100.00
5988;BME280;3021;51.000;6.980;2023-04-21T07:26:11;67816.06;;;13.63;100.00
5988;BME280;3021;51.000;6.980;2023-04-21T07:28:37;67825.91;;;13.72;100.00
5988;BME280;3021;51.000;6.980;2023-04-21T07:31:03;67833.88;;;13.76;100.00
5988;BME280;3021;51.000;6.980;2023-04-21T07:33:28;67828.09;;;13.71;100.00
5988;BME280;3021;51.000;6.980;2023-04-21T07:35:53;67836.19;;;13.78;100.00
5988;BME280;3021;51.000;6.980;2023-04-21T07:38:19;67803.91;;;13.52;100.00
5988;BME280;3021;51.000;6.980;2023-04-21T07:40:44;67818.22;;;13.62;100.00
5988;BME280;3021;51.000;6.980;2023-04-21T07:43:09;67802.00;;;13.48;100.00
5988;BME280;3021;51.000;6.980;2023-04-21T07:45:35;67797.53;;;13.46;100.00
5988;BME280;3021;51.000;6.980;2023-04-21T07:48:01;67815.34;;;13.60;100.00
5988;BME280;3021;51.000;6.980;2023-04-21T07:50:26;67785.19;;;13.33;100.00
5988;BME280;3021;51.000;6.980;2023-04-21T07:52:52;67763.19;;;13.13;100.00
5988;BME280;3021;51.000;6.980;2023-04-21T07:55:17;67743.38;;;12.93;100.00
5988;BME280;3021;51.000;6.980;2023-04-21T07:57:42;67864.00;;;14.03;100.00
5988;BME280;3021;51.000;6.980;2023-04-21T08:00:08;67947.63;;;14.80;100.00
5988;BME280;3021;51.000;6.980;2023-04-21T08:02:34;67983.59;;;15.12;100.00
5988;BME280;3021;51.000;6.980;2023-04-21T08:04:59;67992.88;;;15.20;100.00
5988;BME280;3021;51.000;6.980;2023-04-21T08:07:25;68002.16;;;15.28;100.00
5988;BME280;3021;51.000;6.980;2023-04-21T08:09:50;67989.97;;;15.17;100.00
5988;BME280;3021;51.000;6.980;2023-04-21T08:12:15;67952.72;;;14.82;100.00
5988;BME280;3021;51.000;6.980;2023-04-21T08:14:41;67872.13;;;14.10;100.00
5988;BME280;3021;51.000;6.980;2023-04-21T08:17:06;67857.50;;;13.95;100.00
5988;BME280;3021;51.000;6.980;2023-04-21T08:19:32;67851.28;;;13.92;100.00
5988;BME280;3021;51.000;6.980;2023-04-21T08:21:57;67832.72;;;13.75;100.00
5988;BME280;3021;51.000;6.980;2023-04-21T08:24:23;67837.50;;;13.82;100.00
5988;BME280;3021;51.000;6.980;2023-04-21T08:26:49;67869.81;;;14.08;100.00
5988;BME280;3021;51.000;6.980;2023-04-21T08:29:14;67893.56;;;14.29;100.00
5988;BME280;3021;51.000;6.980;2023-04-21T08:31:39;67882.09;;;14.22;100.00
5988;BME280;3021;51.000;6.980;2023-04-21T08:34:05;67876.63;;;14.12;100.00
5988;BME280;3021;51.000;6.980;2023-04-21T08:36:31;67937.78;;;14.71;100.00
5988;BME280;3021;51.000;6.980;2023-04-21T08:38:57;68001.44;;;15.25;100.00
5988;BME280;3021;51.000;6.980;2023-04-21T08:41:23;68417.00;;;18.96;100.00
5988;BME280;3021;51.000;6.980;2023-04-21T08:43:48;68541.56;;;20.06;100.00
5988;BME280;3021;51.000;6.980;2023-04-21T08:46:14;68532.28;;;19.98;100.00
5988;BME280;3021;51.000;6.980;2023-04-21T08:48:40;68450.75;;;19.26;100.00
5988;BME280;3021;51.000;6.980;2023-04-21T08:51:07;68452.38;;;19.25;100.00
5988;BME280;3021;51.000;6.980;2023-04-21T08:53:36;68444.34;;;19.20;100.00
5988;BME280;3021;51.000;6.980;2023-04-21T08:56:02;68379.75;;;18.63;100.00
5988;BME280;3021;51.000;6.980;2023-04-21T08:58:28;68532.38;;;20.00;100.00
5988;BME280;3021;51.000;6.980;2023-04-21T09:00:53;69080.06;;;24.81;100.00
5988;BME280;3021;51.000;6.980;2023-04-21T09:03:23;69250.31;;;26.34;100.00
5988;BME280;3021;51.000;6.980;2023-04-21T09:06:04;69273.13;;;26.54;100.00
5988;BME280;3021;51.000;6.980;2023-04-21T09:08:31;68800.97;;;22.35;100.00
5988;BME280;3021;51.000;6.980;2023-04-21T09:11:00;68607.38;;;20.64;100.00
5988;BME280;3021;51.000;6.980;2023-04-21T09:13:33;68508.25;;;19.74;100.00
5988;BME280;3021;51.000;6.980;2023-04-21T09:16:01;68681.41;;;21.30;100.00
5988;BME280;3021;51.000;6.980;2023-04-21T09:18:29;68779.25;;;22.14;100.00
5988;BME280;3021;51.000;6.980;2023-04-21T09:21:17;68596.91;;;20.55;100.00
5988;BME280;3021;51.000;6.980;2023-04-21T09:23:51;68819.03;;;22.51;100.00
5988;BME280;3021;51.000;6.980;2023-04-21T09:26:18;68855.78;;;22.84;100.00
5988;BME280;3021;51.000;6.980;2023-04-21T09:28:46;68872.13;;;22.98;100.00
5988;BME280;3021;51.000;6.980;2023-04-21T09:31:16;69104.72;;;25.06;100.00
5988;BME280;3021;51.000;6.980;2023-04-21T09:33:51;69236.28;;;26.21;100.00
5988;BME280;3021;51.000;6.980;2023-04-21T09:36:18;69129.13;;;25.25;100.00
5988;BME280;3021;51.000;6.980;2023-04-21T09:39:03;69044.38;;;24.50;100.00
5988;BME280;3021;51.000;6.980;2023-04-21T09:41:32;69163.75;;;25.58;100.00
5988;BME280;3021;51.000;6.980;2023-04-21T09:43:57;69263.19;;;26.45;100.00
5988;BME280;3021;51.000;6.980;2023-04-21T09:46:27;69455.78;;;28.15;100.00
5988;BME280;3021;51.000;6.980;2023-04-21T09:48:54;69949.09;;;32.48;100.00
5988;BME280;3021;51.000;6.980;2023-04-21T09:51:23;69896.72;;;31.99;100.00
5988;BME280;3021;51.000;6.980;2023-04-21T09:53:52;69365.63;;;27.35;100.00
5988;BME280;3021;51.000;6.980;2023-04-21T09:56:23;69153.69;;;25.46;100.00
5988;BME280;3021;51.000;6.980;2023-04-21T09:58:52;68985.16;;;23.93;100.00
5988;BME280;3021;51.000;6.980;2023-04-21T10:01:19;69420.03;;;27.83;100.00
5988;BME280;3021;51.000;6.980;2023-04-21T10:03:47;69797.50;;;31.12;100.00
5988;BME280;3021;51.000;6.980;2023-04-21T10:06:13;70225.41;;;34.90;99.54
5988;BME280;3021;51.000;6.980;2023-04-21T10:08:39;70187.75;;;34.57;97.04
5988;BME280;3021;51.000;6.980;2023-04-21T10:11:06;69859.25;;;31.69;95.97
5988;BME280;3021;51.000;6.980;2023-04-21T10:13:32;69294.53;;;26.68;100.00
5988;BME280;3021;51.000;6.980;2023-04-21T10:16:08;69315.16;;;26.88;100.00
5988;BME280;3021;51.000;6.980;2023-04-21T10:18:41;69189.94;;;25.78;100.00
5988;BME280;3021;51.000;6.980;2023-04-21T10:21:08;69053.16;;;24.58;100.00
5988;BME280;3021;51.000;6.980;2023-04-21T10:23:42;68743.22;;;21.84;100.00
5988;BME280;3021;51.000;6.980;2023-04-21T10:28:52;68652.13;;;21.01;100.00
5988;BME280;3021;51.000;6.980;2023-04-21T10:39:43;68426.19;;;19.02;100.00
5988;BME280;3021;51.000;6.980;2023-04-21T10:44:44;69081.34;;;24.85;100.00
5988;BME280;3021;51.000;6.980;2023-04-21T10:47:24;68856.38;;;22.84;100.00
5988;BME280;3021;51.000;6.980;2023-04-21T10:49:49;69053.28;;;24.60;100.00
5988;BME280;3021;51.000;6.980;2023-04-21T10:52:15;69297.03;;;26.72;100.00
5988;BME280;3021;51.000;6.980;2023-04-21T10:55:03;69325.69;;;26.98;100.00
5988;BME280;3021;51.000;6.980;2023-04-21T10:57:31;69329.78;;;27.01;100.00
5988;BME280;3021;51.000;6.980;2023-04-21T10:59:56;69295.84;;;26.71;100.00
5988;BME280;3021;51.000;6.980;2023-04-21T11:02:22;69155.94;;;25.46;100.00
5988;BME280;3021;51.000;6.980;2023-04-21T11:04:51;68787.50;;;22.23;100.00
5988;BME280;3021;51.000;6.980;2023-04-21T11:07:22;68669.63;;;21.17;100.00
5988;BME280;3021;51.000;6.980;2023-04-21T11:09:55;68597.22;;;20.50;100.00
5988;BME280;3021;51.000;6.980;2023-04-21T11:12:28;68553.09;;;20.14;100.00
5988;BME280;3021;51.000;6.980;2023-04-21T11:14:54;68519.78;;;19.82;100.00
5988;BME280;3021;51.000;6.980;2023-04-21T11:17:20;68486.00;;;19.52;100.00
5988;BME280;3021;51.000;6.980;2023-04-21T11:19:55;68368.59;;;18.51;100.00
5988;BME280;3021;51.000;6.980;2023-04-21T11:22:24;68345.31;;;18.30;100.00
5988;BME280;3021;51.000;6.980;2023-04-21T11:24:53;68368.59;;;18.51;100.00
5988;BME280;3021;51.000;6.980;2023-04-21T11:27:19;68416.75;;;18.91;100.00
5988;BME280;3021;51.000;6.980;2023-04-21T11:29:46;68507.19;;;19.76;100.00
5988;BME280;3021;51.000;6.980;2023-04-21T11:32:13;68429.09;;;19.04;100.00
5988;BME280;3021;51.000;6.980;2023-04-21T11:34:39;68506.97;;;19.71;100.00
5988;BME280;3021;51.000;6.980;2023-04-21T11:37:09;68568.38;;;20.30;100.00
5988;BME280;3021;51.000;6.980;2023-04-21T11:39:39;68512.91;;;19.78;100.00
5988;BME280;3021;51.000;6.980;2023-04-21T11:42:06;68482.19;;;19.54;100.00
5988;BME280;3021;51.000;6.980;2023-04-21T11:44:37;68469.25;;;19.40;100.00
5988;BME280;3021;51.000;6.980;2023-04-21T11:50:06;68519.19;;;19.81;100.00
5988;BME280;3021;51.000;6.980;2023-04-21T11:52:35;68447.00;;;19.17;100.00
5988;BME280;3021;51.000;6.980;2023-04-21T11:55:12;68422.13;;;18.98;100.00
5988;BME280;3021;51.000;6.980;2023-04-21T11:57:40;68368.47;;;18.48;100.00
5988;BME280;3021;51.000;6.980;2023-04-21T12:00:09;68381.97;;;18.62;100.00
5988;BME280;3021;51.000;6.980;2023-04-21T12:02:39;68412.81;;;18.90;100.00
5988;BME280;3021;51.000;6.980;2023-04-21T12:05:09;68380.09;;;18.58;100.00
5988;BME280;3021;51.000;6.980;2023-04-21T12:07:37;68347.53;;;18.29;100.00
5988;BME280;3021;51.000;6.980;2023-04-21T12:10:29;68351.72;;;18.36;100.00
5988;BME280;3021;51.000;6.980;2023-04-21T12:12:55;68368.69;;;18.53;100.00
5988;BME280;3021;51.000;6.980;2023-04-21T12:15:21;68434.34;;;19.09;100.00
5988;BME280;3021;51.000;6.980;2023-04-21T12:17:52;68502.41;;;19.69;100.00
5988;BME280;3021;51.000;6.980;2023-04-21T12:20:20;68536.19;;;19.99;100.00
5988;BME280;3021;51.000;6.980;2023-04-21T12:22:46;68477.97;;;19.47;100.00
5988;BME280;3021;51.000;6.980;2023-04-21T12:25:12;68481.47;;;19.50;100.00
5988;BME280;3021;51.000;6.980;2023-04-21T12:27:47;68472.88;;;19.45;100.00
5988;BME280;3021;51.000;6.980;2023-04-21T12:30:13;68412.69;;;18.87;100.00
5988;BME280;3021;51.000;6.980;2023-04-21T12:32:38;68447.00;;;19.17;100.00
5988;BME280;3021;51.000;6.980;2023-04-21T12:35:04;68459.38;;;19.31;100.00
5988;BME280;3021;51.000;6.980;2023-04-21T12:37:29;68415.13;;;18.92;100.00
5988;BME280;3021;51.000;6.980;2023-04-21T12:39:54;68500.09;;;19.67;100.00
5988;BME280;3021;51.000;6.980;2023-04-21T12:42:20;68590.94;;;20.47;100.00
5988;BME280;3021;51.000;6.980;2023-04-21T12:44:45;68530.41;;;19.94;100.00
5988;BME280;3021;51.000;6.980;2023-04-21T12:47:10;68522.69;;;19.84;100.00
5988;BME280;3021;51.000;6.980;2023-04-21T12:49:36;68510.00;;;19.76;100.00
5988;BME280;3021;51.000;6.980;2023-04-21T12:52:02;68519.91;;;19.84;100.00
5988;BME280;3021;51.000;6.980;2023-04-21T12:54:29;68530.97;;;19.94;100.00
5988;BME280;3021;51.000;6.980;2023-04-21T12:56:55;68448.88;;;19.22;100.00
5988;BME280;3021;51.000;6.980;2023-04-21T12:59:20;68487.88;;;19.56;100.00
5988;BME280;3021;51.000;6.980;2023-04-21T13:01:45;68478.09;;;19.50;100.00
5988;BME280;3021;51.000;6.980;2023-04-21T13:04:11;68429.66;;;19.05;100.00
5988;BME280;3021;51.000;6.980;2023-04-21T13:06:37;68423.16;;;18.96;100.00
5988;BME280;3021;51.000;6.980;2023-04-21T13:09:03;68448.88;;;19.22;100.00
5988;BME280;3021;51.000;6.980;2023-04-21T13:11:30;68427.34;;;19.03;100.00
5988;BME280;3021;51.000;6.980;2023-04-21T13:13:55;68346.94;;;18.29;100.00
5988;BME280;3021;51.000;6.980;2023-04-21T13:16:20;68319.16;;;18.07;100.00
5988;BME280;3021;51.000;6.980;2023-04-21T13:18:46;68331.94;;;18.18;100.00
5988;BME280;3021;51.000;6.980;2023-04-21T13:21:12;68357.97;;;18.39;100.00
5988;BME280;3021;51.000;6.980;2023-04-21T13:23:37;68407.56;;;18.85;100.00
5988;BME280;3021;51.000;6.980;2023-04-21T13:26:03;68419.78;;;18.96;100.00
5988;BME280;3021;51.000;6.980;2023-04-21T13:28:28;68370.44;;;18.55;100.00
5988;BME280;3021;51.000;6.980;2023-04-21T13:30:54;68343.56;;;18.28;100.00